Loveladies, New Jersey
Current Conditions -  °F | °C
As of 12:55 PM on Friday 24 Oct 2014 (Local Time) from KMJX Reporting Station
Broken Clouds Broken Clouds  
Wind Chill: 61°   Ceiling: 4700
Heat Index: 61°   Visibility: 10mi
Dew Point: 45°   Wind: 7mph
Humidity: 55%   Direction: 330°NNW
Pressure: 29.82"   Gusts: NA
Location:  39.623°N, 74.1974°W
Report Text: KMJX 241655Z AUTO 33006KT 10SM SCT040 BKN047 16/07 A2982 RMK AO1
Loading
Personal Weather Stations






























Interactive Weather Map
Tropical Storm Tracking
New forecast layout! Learn more

10-Day Weather Forecast

Advertisements
Track Severe Weather on mobile